Providence, Utah
Current Conditions -  °F | °C
As of 11:51 AM on Sunday 21 Dec 2014 (Local Time) from KLGU Reporting Station
Overcast Overcast  
Wind Chill: 40°   Ceiling: 3800
Heat Index: 44°   Visibility: 10mi
Dew Point: 38°   Wind: 7mph
Humidity: 79%   Direction: 240°WSW
Pressure: 29.88"   Gusts: NA
Location:  41.71°N, 111.82°W
Report Text: KLGU 211851Z AUTO 24006KT 10SM SCT030 OVC038 07/03 A2988 RMK AO2 RAE38 SLP112 P0001 T00670033
Loading
Personal Weather Stations






























Interactive Weather Map New forecast layout! Learn more

10-Day Weather Forecast

Advertisements
Track Severe Weather on mobile